createdAt,value
2018-07-15T00:00:23.397Z,3.40
2018-07-15T00:05:15.822Z,3.17
2018-07-15T00:10:08.327Z,3.23
2018-07-15T00:15:01.068Z,3.20
2018-07-15T00:19:53.632Z,3.03
2018-07-15T00:24:46.235Z,3.07
2018-07-15T00:29:38.847Z,3.23
2018-07-15T00:34:31.397Z,3.33
2018-07-15T00:39:23.969Z,3.13
2018-07-15T00:44:16.559Z,3.50
2018-07-15T00:49:09.233Z,3.10
2018-07-15T00:54:01.765Z,3.33
2018-07-15T00:58:54.297Z,3.93
2018-07-15T01:03:46.885Z,4.57
2018-07-15T01:08:39.497Z,5.60
2018-07-15T01:13:32.094Z,6.73
2018-07-15T01:18:24.695Z,5.90
2018-07-15T01:23:17.316Z,5.37
2018-07-15T01:28:09.978Z,5.37
2018-07-15T01:33:02.604Z,5.63
2018-07-15T01:37:55.257Z,5.27
2018-07-15T01:42:47.817Z,5.33
2018-07-15T01:47:40.382Z,5.37
2018-07-15T01:52:32.999Z,5.00
2018-07-15T01:57:25.599Z,5.20
2018-07-15T02:02:18.254Z,4.43
2018-07-15T02:07:10.873Z,5.00
2018-07-15T02:12:03.434Z,4.77
2018-07-15T02:16:55.966Z,4.97
2018-07-15T02:21:48.576Z,4.50
2018-07-15T02:26:41.150Z,4.77
2018-07-15T02:31:33.855Z,4.73
2018-07-15T02:36:26.384Z,5.00
2018-07-15T02:41:18.976Z,4.97
2018-07-15T02:46:11.673Z,4.43
2018-07-15T02:51:04.290Z,4.87
2018-07-15T02:55:56.846Z,5.20
2018-07-15T03:00:49.465Z,4.73
2018-07-15T03:05:42.084Z,5.37
2018-07-15T03:10:34.646Z,5.20
2018-07-15T03:15:27.273Z,5.40
2018-07-15T03:20:19.786Z,5.20
2018-07-15T03:25:12.438Z,5.80
2018-07-15T03:30:05.015Z,5.87
2018-07-15T03:34:57.568Z,5.83
2018-07-15T03:39:50.181Z,5.50
2018-07-15T03:44:42.972Z,6.03
2018-07-15T03:49:35.587Z,5.80
2018-07-15T03:54:28.080Z,6.33
2018-07-15T03:59:20.662Z,5.67
2018-07-15T04:04:13.241Z,5.27
2018-07-15T04:09:06.199Z,5.13
2018-07-15T04:13:58.795Z,5.40
2018-07-15T04:18:51.362Z,5.00
2018-07-15T04:23:44.191Z,4.67
2018-07-15T04:28:36.787Z,4.80
2018-07-15T04:33:29.403Z,4.33
2018-07-15T04:38:21.989Z,4.03
2018-07-15T04:43:14.548Z,3.73
2018-07-15T04:48:07.201Z,3.80
2018-07-15T04:52:59.774Z,3.80
2018-07-15T04:57:52.326Z,3.73
2018-07-15T05:02:45.948Z,3.67
2018-07-15T05:07:38.517Z,3.60
2018-07-15T05:12:31.138Z,3.93
2018-07-15T05:17:23.734Z,3.77
2018-07-15T05:22:16.359Z,3.47
2018-07-15T05:27:08.909Z,3.20
2018-07-15T05:32:01.590Z,2.90
2018-07-15T05:36:54.121Z,2.77
2018-07-15T05:41:46.681Z,2.77
2018-07-15T05:46:39.400Z,2.63
2018-07-15T05:51:32.051Z,3.10
2018-07-15T05:56:24.639Z,2.60
2018-07-15T06:01:17.223Z,2.50
2018-07-15T06:06:09.872Z,2.40
2018-07-15T06:11:02.542Z,2.57
2018-07-15T06:15:55.106Z,2.50
2018-07-15T06:20:47.836Z,2.60
2018-07-15T06:25:40.502Z,2.67
2018-07-15T06:30:33.073Z,2.20
2018-07-15T06:35:25.638Z,2.10
2018-07-15T06:40:18.226Z,2.10
2018-07-15T06:45:10.970Z,2.27
2018-07-15T06:50:03.675Z,1.77
2018-07-15T06:54:56.336Z,2.47
2018-07-15T06:59:48.938Z,2.23
2018-07-15T07:04:41.847Z,1.97
2018-07-15T07:09:34.338Z,2.13
2018-07-15T07:14:26.936Z,1.97
2018-07-15T07:19:19.586Z,2.20
2018-07-15T07:24:12.122Z,2.10
2018-07-15T07:29:04.722Z,1.83
2018-07-15T07:33:57.305Z,1.70
2018-07-15T07:38:49.976Z,1.53
2018-07-15T07:43:42.546Z,1.40
2018-07-15T07:48:35.155Z,1.23
2018-07-15T07:53:28.006Z,1.50
2018-07-15T07:58:20.570Z,1.50
2018-07-15T08:03:13.156Z,1.30
2018-07-15T08:08:05.782Z,1.20
2018-07-15T08:12:58.408Z,2.27
2018-07-15T08:17:51.208Z,1.57
2018-07-15T08:22:43.802Z,1.30
2018-07-15T08:27:36.375Z,1.27
2018-07-15T08:32:29.110Z,1.47
2018-07-15T08:37:21.737Z,1.50
2018-07-15T08:42:14.338Z,1.43
2018-07-15T08:47:06.914Z,1.70
2018-07-15T08:52:01.505Z,1.60
2018-07-15T08:56:54.122Z,1.97
2018-07-15T09:01:46.787Z,1.97
2018-07-15T09:06:39.371Z,2.20
2018-07-15T09:11:31.926Z,1.60
2018-07-15T09:16:24.536Z,1.67
2018-07-15T09:21:17.111Z,2.17
2018-07-15T09:26:09.675Z,2.13
2018-07-15T09:31:02.272Z,1.70
2018-07-15T09:35:54.827Z,1.90
2018-07-15T09:40:47.418Z,1.90
2018-07-15T09:45:39.932Z,1.90
2018-07-15T09:50:32.573Z,1.73
2018-07-15T09:55:25.198Z,1.90
2018-07-15T10:00:23.680Z,1.90
2018-07-15T10:05:16.531Z,1.57
2018-07-15T10:10:09.118Z,1.70
2018-07-15T10:15:01.742Z,1.90
2018-07-15T10:19:54.478Z,1.90
2018-07-15T10:24:47.203Z,1.90
2018-07-15T10:29:39.783Z,2.13
2018-07-15T10:34:32.610Z,1.83
2018-07-15T10:39:25.405Z,1.70
2018-07-15T10:44:17.986Z,1.93
2018-07-15T10:49:10.629Z,1.73
2018-07-15T10:54:03.418Z,1.80
2018-07-15T10:58:56.067Z,1.93
2018-07-15T11:03:48.742Z,1.80
2018-07-15T11:08:41.259Z,2.00
2018-07-15T11:13:33.819Z,2.00
2018-07-15T11:18:26.498Z,2.20
2018-07-15T11:23:19.071Z,2.03
2018-07-15T11:28:11.629Z,6.03
2018-07-15T11:33:04.194Z,21.50
2018-07-15T11:37:56.777Z,20.93
2018-07-15T11:42:49.448Z,25.20
2018-07-15T11:47:42.002Z,3.70
2018-07-15T11:52:34.632Z,25.10
2018-07-15T11:57:27.229Z,10.33
2018-07-15T12:02:19.819Z,16.97
2018-07-15T12:07:12.487Z,14.33
2018-07-15T12:12:05.027Z,9.17
2018-07-15T12:16:57.815Z,8.50
2018-07-15T12:21:50.398Z,3.53
2018-07-15T12:26:43.130Z,2.20
2018-07-15T12:31:35.880Z,2.50
2018-07-15T12:36:28.463Z,2.73
2018-07-15T12:41:21.142Z,2.30
2018-07-15T12:46:13.748Z,2.37
2018-07-15T12:51:06.330Z,2.37
2018-07-15T12:55:59.024Z,2.70
2018-07-15T13:00:51.655Z,2.30
2018-07-15T13:05:44.246Z,2.03
2018-07-15T13:10:36.895Z,2.10
2018-07-15T13:15:29.484Z,2.17
2018-07-15T13:20:22.805Z,2.00
2018-07-15T13:25:15.361Z,2.20
2018-07-15T13:30:07.991Z,2.50
2018-07-15T13:35:00.610Z,2.17
2018-07-15T13:39:53.221Z,2.20
2018-07-15T13:44:45.751Z,2.10
2018-07-15T13:49:38.346Z,1.90
2018-07-15T13:54:30.889Z,2.10
2018-07-15T13:59:23.436Z,2.13
2018-07-15T14:04:16.088Z,2.20
2018-07-15T14:09:08.653Z,2.00
2018-07-15T14:14:01.227Z,2.03
2018-07-15T14:18:53.827Z,2.17
2018-07-15T14:23:46.381Z,2.23
2018-07-15T14:28:38.970Z,2.37
2018-07-15T14:33:31.760Z,2.00
2018-07-15T14:38:24.375Z,2.10
2018-07-15T14:43:16.983Z,2.10
2018-07-15T14:48:09.566Z,2.00
2018-07-15T14:53:02.163Z,1.90
2018-07-15T14:57:54.685Z,2.10
2018-07-15T15:02:47.275Z,1.97
2018-07-15T15:07:39.815Z,1.83
2018-07-15T15:12:32.449Z,1.90
2018-07-15T15:17:25.024Z,1.90
2018-07-15T15:22:17.687Z,1.97
2018-07-15T15:27:10.291Z,1.80
2018-07-15T15:32:02.928Z,1.83
2018-07-15T15:36:55.527Z,1.80
2018-07-15T15:41:48.092Z,1.97
2018-07-15T15:46:40.731Z,2.20
2018-07-15T15:51:33.314Z,1.70
2018-07-15T15:56:26.015Z,1.80
2018-07-15T16:01:18.606Z,2.10
2018-07-15T16:06:11.197Z,2.40
2018-07-15T16:11:03.772Z,2.10
2018-07-15T16:15:56.287Z,2.07
2018-07-15T16:20:49.579Z,1.70
2018-07-15T16:25:42.127Z,2.53
2018-07-15T16:30:34.703Z,2.30
2018-07-15T16:35:27.387Z,1.77
2018-07-15T16:40:19.934Z,2.00
2018-07-15T16:45:12.498Z,1.97
2018-07-15T16:50:05.222Z,1.90
2018-07-15T16:54:57.920Z,2.00
2018-07-15T16:59:50.461Z,1.97
2018-07-15T17:04:43.047Z,1.97
2018-07-15T17:09:35.617Z,2.20
2018-07-15T17:14:28.383Z,1.80
2018-07-15T17:19:20.998Z,2.00
2018-07-15T17:24:13.614Z,2.40
2018-07-15T17:29:06.202Z,2.20
2018-07-15T17:33:58.810Z,2.00
2018-07-15T17:38:51.446Z,2.23
2018-07-15T17:43:44.213Z,2.10
2018-07-15T17:48:36.875Z,1.90
2018-07-15T17:53:29.501Z,2.20
2018-07-15T17:58:22.079Z,2.13
2018-07-15T18:03:14.666Z,2.13
2018-07-15T18:08:07.267Z,2.70
2018-07-15T18:12:59.990Z,2.50
2018-07-15T18:17:52.604Z,2.37
2018-07-15T18:22:45.218Z,2.50
2018-07-15T18:27:37.786Z,2.57
2018-07-15T18:32:30.390Z,2.63
2018-07-15T18:37:23.146Z,2.47
2018-07-15T18:42:15.846Z,2.13
2018-07-15T18:47:08.435Z,2.23
2018-07-15T18:52:01.130Z,2.77
2018-07-15T18:56:53.766Z,2.70
2018-07-15T19:01:46.319Z,2.50
2018-07-15T19:06:38.907Z,2.53
2018-07-15T19:11:31.706Z,3.00
2018-07-15T19:16:24.298Z,2.60
2018-07-15T19:21:16.940Z,2.87
2018-07-15T19:26:09.547Z,2.97
2018-07-15T19:31:02.108Z,2.90
2018-07-15T19:35:54.658Z,3.03
2018-07-15T19:40:47.249Z,2.80
2018-07-15T19:45:39.891Z,2.50
2018-07-15T19:50:32.532Z,2.60
2018-07-15T19:55:25.109Z,2.83
2018-07-15T20:00:17.659Z,2.60
2018-07-15T20:05:10.264Z,3.00
2018-07-15T20:10:02.874Z,2.70
2018-07-15T20:14:55.527Z,3.10
2018-07-15T20:19:48.101Z,3.37
2018-07-15T20:24:40.759Z,3.30
2018-07-15T20:29:33.319Z,3.33
2018-07-15T20:34:25.985Z,3.30
2018-07-15T20:39:18.416Z,3.20
2018-07-15T20:44:10.977Z,3.30
2018-07-15T20:49:03.581Z,3.70
2018-07-15T20:53:56.215Z,3.57
2018-07-15T20:58:48.789Z,4.10
2018-07-15T21:03:41.453Z,4.10
2018-07-15T21:08:34.116Z,4.30
2018-07-15T21:13:26.817Z,4.13
2018-07-15T21:18:19.387Z,4.10
2018-07-15T21:23:11.997Z,3.90
2018-07-15T21:28:04.858Z,4.70
2018-07-15T21:32:57.357Z,3.30
2018-07-15T21:37:50.019Z,3.67
2018-07-15T21:42:42.740Z,3.77
2018-07-15T21:47:35.369Z,3.57
2018-07-15T21:52:27.972Z,4.23
2018-07-15T21:57:20.526Z,4.23
2018-07-15T22:02:13.624Z,4.30
2018-07-15T22:07:24.031Z,4.33
2018-07-15T22:12:16.625Z,4.60
2018-07-15T22:17:09.195Z,4.27
2018-07-15T22:22:01.865Z,4.13
2018-07-15T22:26:54.426Z,4.23
2018-07-15T22:31:47.070Z,4.50
2018-07-15T22:36:39.714Z,4.17
2018-07-15T22:41:32.274Z,4.27
2018-07-15T22:46:24.866Z,4.53
2018-07-15T22:51:17.390Z,4.10
2018-07-15T22:56:10.038Z,4.70
2018-07-15T23:01:02.712Z,5.07
2018-07-15T23:06:12.959Z,5.00
2018-07-15T23:11:05.511Z,4.57
2018-07-15T23:15:58.106Z,4.83
2018-07-15T23:20:51.253Z,5.00
2018-07-15T23:25:43.915Z,5.10
2018-07-15T23:30:37.566Z,5.30
2018-07-15T23:35:30.461Z,5.50
2018-07-15T23:40:23.158Z,5.93
2018-07-15T23:45:15.732Z,5.40
2018-07-15T23:50:08.394Z,5.63
2018-07-15T23:55:01.098Z,6.40
2018-07-15T23:59:53.839Z,5.87
